Time;durP1;ratioP1;P1;durP2;ratioP2;P2;SDS_P1;SDS_P2;PMS_P1;PMS_P2;Temp;Humidity;BMP_temperature;BMP_pressure;BME280_temperature;BME280_humidity;BME280_pressure;Samples;Min_cycle;Max_cycle;Signal;HPM_P1;HPM_P2
2021/05/13 00:00:37;;;;;;;;;;;15.30;43.80;;;;;;5072886;27;75711;-71
2021/05/13 00:03:03;;;;;;;;;;;15.30;44.20;;;;;;5054439;27;75236;-72
2021/05/13 00:05:28;;;;;;;;;;;15.20;44.40;;;;;;5073257;27;74611;-73
2021/05/13 00:07:54;;;;;;;;;;;15.20;44.60;;;;;;5072285;27;74460;-74
2021/05/13 00:10:23;;;;;;;;;;;15.10;44.40;;;;;;5054080;27;78251;-73
2021/05/13 00:12:52;;;;;;;;;;;15.00;44.50;;;;;;5053338;27;77613;-74
2021/05/13 00:15:23;;;;;;;;;;;15.00;44.70;;;;;;5072669;27;75391;-73
2021/05/13 00:17:49;;;;;;;;;;;15.00;44.60;;;;;;5053755;27;74689;-73
2021/05/13 00:20:18;;;;;;;;;;;15.00;44.90;;;;;;5072612;27;75310;-69
2021/05/13 00:22:44;;;;;;;;;;;14.90;45.10;;;;;;5054095;27;75352;-69
2021/05/13 00:25:10;;;;;;;;;;;14.90;45.10;;;;;;5053758;27;76053;-70
2021/05/13 00:27:35;;;;;;;;;;;14.90;45.50;;;;;;5071571;27;76105;-69
2021/05/13 00:30:01;;;;;;;;;;;14.90;45.30;;;;;;5052985;27;77187;-73
2021/05/13 00:32:27;;;;;;;;;;;14.90;45.60;;;;;;5072096;27;76482;-68
2021/05/13 00:34:53;;;;;;;;;;;14.80;45.50;;;;;;5053843;27;75374;-71
2021/05/13 00:37:18;;;;;;;;;;;14.80;45.40;;;;;;5053878;27;75380;-70
2021/05/13 00:39:44;;;;;;;;;;;14.90;45.50;;;;;;5072713;27;74504;-71
2021/05/13 00:42:09;;;;;;;;;;;14.90;45.60;;;;;;5053511;27;75336;-70
2021/05/13 00:44:35;;;;;;;;;;;14.90;45.70;;;;;;5072682;27;74349;-70
2021/05/13 00:47:02;;;;;;;;;;;14.90;45.60;;;;;;5053488;27;76559;-71
2021/05/13 00:49:27;;;;;;;;;;;14.80;45.80;;;;;;5053722;27;77420;-69
2021/05/13 00:51:53;;;;;;;;;;;14.90;45.90;;;;;;5053237;27;77090;-70
2021/05/13 00:54:19;;;;;;;;;;;14.90;45.90;;;;;;5056275;27;77269;-71
2021/05/13 00:56:44;;;;;;;;;;;14.80;46.10;;;;;;5057037;27;75033;-72
2021/05/13 00:59:12;;;;;;;;;;;14.80;46.20;;;;;;5075294;27;75300;-71
2021/05/13 01:04:13;;;;;;;;;;;14.80;46.40;;;;;;5072871;27;74793;-71
2021/05/13 01:06:39;;;;;;;;;;;14.70;46.40;;;;;;5056601;27;75368;-75
2021/05/13 01:09:11;;;;;;;;;;;14.70;46.50;;;;;;5075631;27;75208;-74
2021/05/13 01:11:39;;;;;;;;;;;14.70;46.50;;;;;;5075106;27;74546;-69
2021/05/13 01:16:50;;;;;;;;;;;14.70;46.90;;;;;;5074128;27;75054;-71
2021/05/13 01:19:16;;;;;;;;;;;14.70;47.10;;;;;;5056728;27;75407;-72
2021/05/13 01:21:45;;;;;;;;;;;14.60;46.80;;;;;;5056050;27;77045;-75
2021/05/13 01:24:12;;;;;;;;;;;14.60;46.90;;;;;;5056492;27;75615;-71
2021/05/13 01:26:38;;;;;;;;;;;14.60;46.90;;;;;;5056412;27;77135;-71
2021/05/13 01:29:03;;;;;;;;;;;14.60;47.10;;;;;;5075043;27;74468;-71
2021/05/13 01:31:29;;;;;;;;;;;14.60;47.10;;;;;;5056578;27;77642;-69
2021/05/13 01:33:55;;;;;;;;;;;14.60;46.90;;;;;;5056087;27;78140;-68
2021/05/13 01:36:20;;;;;;;;;;;14.60;47.00;;;;;;5075023;27;74934;-70
2021/05/13 01:38:46;;;;;;;;;;;14.50;47.00;;;;;;5056210;27;75443;-69
2021/05/13 01:41:11;;;;;;;;;;;14.50;47.10;;;;;;5056145;27;75273;-77
2021/05/13 01:43:37;;;;;;;;;;;14.50;47.00;;;;;;5055826;27;77634;-74
2021/05/13 01:46:03;;;;;;;;;;;14.50;47.10;;;;;;5056215;27;77113;-74
2021/05/13 01:48:29;;;;;;;;;;;14.50;47.20;;;;;;5074954;27;75109;-72
2021/05/13 01:50:55;;;;;;;;;;;14.50;47.00;;;;;;5055938;27;74515;-72
2021/05/13 01:53:21;;;;;;;;;;;14.50;47.20;;;;;;5055874;27;77309;-69
2021/05/13 01:55:47;;;;;;;;;;;14.40;47.20;;;;;;5055872;27;75273;-69
2021/05/13 01:58:13;;;;;;;;;;;14.50;47.30;;;;;;5074812;27;75997;-70
2021/05/13 02:00:40;;;;;;;;;;;14.40;47.40;;;;;;5055735;27;77158;-67
2021/05/13 02:03:05;;;;;;;;;;;14.40;47.70;;;;;;5055761;27;75754;-70
2021/05/13 02:05:31;;;;;;;;;;;14.40;47.80;;;;;;5054863;27;76257;-68
2021/05/13 02:07:57;;;;;;;;;;;14.30;47.90;;;;;;5055430;27;76491;-72
2021/05/13 02:10:22;;;;;;;;;;;14.30;48.10;;;;;;5074591;27;75143;-69
2021/05/13 02:12:48;;;;;;;;;;;14.30;48.30;;;;;;5074034;27;75059;-72
2021/05/13 02:15:16;;;;;;;;;;;14.20;48.20;;;;;;5055800;27;75744;-72
2021/05/13 02:17:41;;;;;;;;;;;14.20;48.30;;;;;;5074704;27;75098;-72
2021/05/13 02:20:09;;;;;;;;;;;14.20;48.30;;;;;;5055550;27;77419;-72
2021/05/13 02:22:34;;;;;;;;;;;14.20;48.20;;;;;;5055468;27;77614;-71
2021/05/13 02:25:00;;;;;;;;;;;14.20;48.40;;;;;;5055277;27;76335;-70
2021/05/13 02:27:26;;;;;;;;;;;14.20;48.40;;;;;;5055741;27;75281;-68
2021/05/13 02:29:51;;;;;;;;;;;14.10;48.50;;;;;;5055428;27;75032;-70
2021/05/13 02:32:17;;;;;;;;;;;14.10;48.20;;;;;;5055586;27;77924;-72
2021/05/13 02:34:42;;;;;;;;;;;14.10;48.50;;;;;;5056182;27;76738;-73
2021/05/13 02:37:08;;;;;;;;;;;14.10;48.30;;;;;;5074122;27;75233;-72
2021/05/13 02:39:34;;;;;;;;;;;14.00;48.40;;;;;;5055577;27;77887;-70
2021/05/13 02:41:59;;;;;;;;;;;14.00;48.40;;;;;;5055111;27;75555;-68
2021/05/13 02:44:25;;;;;;;;;;;14.00;48.40;;;;;;5073525;27;75374;-69
2021/05/13 02:46:50;;;;;;;;;;;14.00;48.50;;;;;;5074136;27;75203;-69
2021/05/13 02:49:16;;;;;;;;;;;13.90;48.50;;;;;;5055052;27;76442;-69
2021/05/13 02:51:41;;;;;;;;;;;13.90;48.50;;;;;;5055211;27;77940;-69
2021/05/13 02:54:07;;;;;;;;;;;13.90;48.70;;;;;;5073841;27;75075;-68
2021/05/13 02:56:33;;;;;;;;;;;13.90;48.60;;;;;;5055008;27;74659;-68
2021/05/13 02:58:58;;;;;;;;;;;13.90;48.70;;;;;;5054941;27;75892;-68
2021/05/13 03:01:29;;;;;;;;;;;13.90;48.80;;;;;;5055023;27;77879;-67
2021/05/13 03:03:56;;;;;;;;;;;13.80;48.90;;;;;;5055285;27;75444;-68
2021/05/13 03:06:23;;;;;;;;;;;13.80;49.00;;;;;;5054594;27;77577;-68
2021/05/13 03:08:55;;;;;;;;;;;13.80;49.00;;;;;;5073507;27;74622;-66
2021/05/13 03:11:25;;;;;;;;;;;13.80;49.30;;;;;;5058435;27;75523;-68
2021/05/13 03:13:53;;;;;;;;;;;13.70;49.20;;;;;;5054691;27;77630;-68
2021/05/13 03:16:19;;;;;;;;;;;13.70;49.30;;;;;;5061551;27;74626;-70
2021/05/13 03:18:50;;;;;;;;;;;13.70;49.40;;;;;;5034266;28;75563;-70
2021/05/13 03:21:40;;;;;;;;;;;13.60;49.50;;;;;;5034527;28;76350;-69
2021/05/13 03:29:08;;;;;;;;;;;13.50;50.00;;;;;;5072065;27;74981;-70
2021/05/13 03:31:34;;;;;;;;;;;13.50;49.90;;;;;;5054279;27;75385;-73
2021/05/13 03:34:00;;;;;;;;;;;13.40;50.00;;;;;;5073290;27;75011;-71
2021/05/13 03:36:26;;;;;;;;;;;13.40;50.00;;;;;;5073579;27;75707;-73
2021/05/13 03:38:51;;;;;;;;;;;13.40;50.40;;;;;;5053981;27;75630;-69
2021/05/13 03:41:17;;;;;;;;;;;13.40;50.90;;;;;;5054167;27;77030;-70
2021/05/13 03:43:42;;;;;;;;;;;13.30;50.70;;;;;;5054116;27;76251;-70
2021/05/13 03:46:08;;;;;;;;;;;13.30;51.00;;;;;;5053555;27;77382;-69
2021/05/13 03:48:34;;;;;;;;;;;13.20;51.00;;;;;;5054286;27;76999;-69
2021/05/13 03:50:59;;;;;;;;;;;13.30;51.00;;;;;;5054081;27;78151;-69
2021/05/13 03:53:25;;;;;;;;;;;13.20;51.10;;;;;;5072723;27;75579;-69
2021/05/13 03:55:52;;;;;;;;;;;13.10;51.10;;;;;;5053982;27;77033;-69
2021/05/13 03:58:24;;;;;;;;;;;13.10;51.00;;;;;;5072690;27;75402;-70
2021/05/13 04:01:09;;;;;;;;;;;13.10;51.40;;;;;;5053850;27;77724;-69
2021/05/13 04:03:35;;;;;;;;;;;13.10;51.20;;;;;;5072396;27;75466;-68
2021/05/13 04:06:00;;;;;;;;;;;13.10;51.10;;;;;;5073084;27;74370;-68
2021/05/13 04:08:26;;;;;;;;;;;13.20;51.20;;;;;;5053296;27;78084;-67
2021/05/13 04:10:52;;;;;;;;;;;13.20;51.20;;;;;;5053760;27;77124;-68
2021/05/13 04:13:18;;;;;;;;;;;13.10;51.50;;;;;;5054008;27;75491;-68
2021/05/13 04:15:47;;;;;;;;;;;13.10;51.40;;;;;;5071610;27;75296;-67
2021/05/13 04:18:13;;;;;;;;;;;13.10;51.40;;;;;;5046688;27;75900;-67
2021/05/13 04:20:41;;;;;;;;;;;13.10;51.50;;;;;;5052018;28;75185;-67
2021/05/13 04:23:08;;;;;;;;;;;13.00;51.70;;;;;;5061442;27;75447;-71
2021/05/13 04:25:33;;;;;;;;;;;13.00;51.70;;;;;;5052010;28;75167;-68
2021/05/13 04:27:59;;;;;;;;;;;13.00;51.90;;;;;;5053599;27;74629;-73
2021/05/13 04:30:24;;;;;;;;;;;13.00;51.80;;;;;;5037321;28;75777;-68
2021/05/13 04:32:50;;;;;;;;;;;13.00;51.80;;;;;;5055549;28;74479;-69
2021/05/13 04:35:17;;;;;;;;;;;12.90;52.10;;;;;;5036627;28;75304;-69
2021/05/13 04:37:43;;;;;;;;;;;12.90;52.10;;;;;;5034079;28;77266;-69
2021/05/13 04:40:09;;;;;;;;;;;12.90;52.00;;;;;;5053493;28;74913;-69
2021/05/13 04:42:34;;;;;;;;;;;12.90;52.00;;;;;;5054946;28;74955;-69
2021/05/13 04:45:00;;;;;;;;;;;12.90;52.10;;;;;;5054986;28;75137;-71
2021/05/13 04:47:34;;;;;;;;;;;12.90;52.10;;;;;;5055031;28;75665;-69
2021/05/13 04:50:00;;;;;;;;;;;12.90;52.00;;;;;;5036123;28;75173;-70
2021/05/13 04:52:26;;;;;;;;;;;12.90;52.20;;;;;;5055650;28;75278;-69
2021/05/13 04:54:56;;;;;;;;;;;12.80;52.20;;;;;;5036738;28;75323;-70
2021/05/13 04:57:22;;;;;;;;;;;12.90;52.20;;;;;;5036407;28;75943;-69
2021/05/13 04:59:48;;;;;;;;;;;12.90;52.40;;;;;;5036844;28;75766;-69
2021/05/13 05:02:13;;;;;;;;;;;12.90;52.70;;;;;;5055409;28;75333;-69
2021/05/13 05:04:39;;;;;;;;;;;12.80;52.70;;;;;;5055063;28;74965;-70
2021/05/13 05:07:04;;;;;;;;;;;12.80;52.50;;;;;;5028476;28;76834;-70
2021/05/13 05:09:30;;;;;;;;;;;12.80;52.60;;;;;;5014721;28;74525;-69
2021/05/13 05:11:56;;;;;;;;;;;12.90;52.50;;;;;;5014617;28;75028;-70
2021/05/13 05:14:22;;;;;;;;;;;12.80;52.50;;;;;;5029305;28;77485;-70
2021/05/13 05:16:47;;;;;;;;;;;12.90;52.40;;;;;;5013830;28;77139;-71
2021/05/13 05:19:13;;;;;;;;;;;12.80;52.30;;;;;;4996199;28;74672;-70
2021/05/13 05:21:39;;;;;;;;;;;12.80;52.10;;;;;;5011189;28;74543;-69
2021/05/13 05:24:05;;;;;;;;;;;12.80;52.00;;;;;;4996287;28;76782;-69
2021/05/13 05:26:30;;;;;;;;;;;12.90;52.00;;;;;;4996575;28;76251;-71
2021/05/13 05:28:56;;;;;;;;;;;12.80;51.90;;;;;;4995397;28;75686;-70
2021/05/13 05:31:22;;;;;;;;;;;12.90;51.80;;;;;;5013842;28;75816;-67
2021/05/13 05:33:47;;;;;;;;;;;12.80;51.80;;;;;;5014082;28;75146;-65
2021/05/13 05:36:13;;;;;;;;;;;12.70;52.00;;;;;;5029263;28;75867;-69
2021/05/13 05:38:39;;;;;;;;;;;12.70;52.10;;;;;;5010497;28;78507;-69
2021/05/13 05:41:04;;;;;;;;;;;12.80;52.00;;;;;;5032180;28;75755;-69
2021/05/13 05:43:30;;;;;;;;;;;12.80;52.40;;;;;;5021033;28;77511;-70
2021/05/13 05:45:56;;;;;;;;;;;12.80;52.60;;;;;;5033199;28;75608;-69
2021/05/13 05:48:21;;;;;;;;;;;12.70;52.60;;;;;;5014387;28;74728;-69
2021/05/13 05:50:47;;;;;;;;;;;12.70;53.50;;;;;;5015789;28;75425;-68
2021/05/13 05:53:13;;;;;;;;;;;12.70;53.00;;;;;;5033901;28;75389;-69
2021/05/13 05:55:39;;;;;;;;;;;12.80;52.90;;;;;;5033741;28;74910;-68
2021/05/13 05:58:05;;;;;;;;;;;12.80;52.80;;;;;;5033494;28;75089;-67
2021/05/13 06:00:30;;;;;;;;;;;12.80;52.90;;;;;;5015663;28;75343;-68
2021/05/13 06:02:56;;;;;;;;;;;12.90;52.80;;;;;;5015200;28;76437;-67
2021/05/13 06:05:23;;;;;;;;;;;12.90;52.10;;;;;;5014963;28;77114;-67
2021/05/13 06:07:49;;;;;;;;;;;13.00;51.80;;;;;;5044233;28;75102;-66
2021/05/13 06:10:15;;;;;;;;;;;13.10;51.70;;;;;;5054055;28;75331;-68
2021/05/13 06:12:41;;;;;;;;;;;13.10;51.80;;;;;;5035252;28;76549;-68
2021/05/13 06:15:17;;;;;;;;;;;13.10;51.80;;;;;;5053755;28;75152;-68
2021/05/13 06:17:43;;;;;;;;;;;13.10;51.50;;;;;;5035411;28;74521;-68
2021/05/13 06:20:16;;;;;;;;;;;13.20;51.30;;;;;;5053753;28;74677;-68
2021/05/13 06:22:41;;;;;;;;;;;13.20;51.40;;;;;;5053972;28;75180;-68
2021/05/13 06:25:07;;;;;;;;;;;13.20;51.20;;;;;;5035291;28;76637;-67
2021/05/13 06:27:33;;;;;;;;;;;13.30;50.90;;;;;;5035131;28;77732;-67
2021/05/13 06:29:58;;;;;;;;;;;13.40;50.60;;;;;;5054078;28;75404;-67
2021/05/13 06:32:25;;;;;;;;;;;13.40;50.40;;;;;;5053458;28;74630;-68
2021/05/13 06:34:51;;;;;;;;;;;13.50;50.10;;;;;;5034778;28;77528;-68
2021/05/13 06:37:17;;;;;;;;;;;13.60;49.70;;;;;;5031885;28;78006;-67
2021/05/13 06:39:43;;;;;;;;;;;13.60;49.70;;;;;;5032098;28;76796;-66
2021/05/13 06:42:09;;;;;;;;;;;13.70;49.60;;;;;;5033087;28;77733;-68
2021/05/13 06:44:34;;;;;;;;;;;13.80;49.80;;;;;;5032307;28;78066;-68
2021/05/13 06:47:00;;;;;;;;;;;13.70;49.10;;;;;;5034336;28;75411;-68
2021/05/13 06:49:26;;;;;;;;;;;13.90;49.30;;;;;;5034709;28;77517;-68
2021/05/13 06:51:51;;;;;;;;;;;13.90;48.90;;;;;;5034407;28;78070;-69
2021/05/13 06:54:17;;;;;;;;;;;13.90;49.00;;;;;;5034180;28;74725;-68
2021/05/13 06:56:43;;;;;;;;;;;13.90;48.70;;;;;;5019143;28;77493;-67
2021/05/13 06:59:08;;;;;;;;;;;13.90;48.70;;;;;;5032540;28;75103;-67
2021/05/13 07:01:35;;;;;;;;;;;13.90;48.60;;;;;;5013964;28;78168;-67
2021/05/13 07:04:04;;;;;;;;;;;13.90;48.80;;;;;;5022758;28;76762;-66
2021/05/13 07:06:31;;;;;;;;;;;14.10;48.80;;;;;;5041674;27;77586;-67
2021/05/13 07:08:56;;;;;;;;;;;14.20;48.20;;;;;;5032838;28;77428;-68
2021/05/13 07:11:22;;;;;;;;;;;14.20;47.90;;;;;;5053304;27;75582;-67
2021/05/13 07:13:47;;;;;;;;;;;14.20;48.00;;;;;;5059286;27;75057;-67
2021/05/13 07:16:13;;;;;;;;;;;14.20;47.80;;;;;;5052276;28;75658;-65
2021/05/13 07:18:39;;;;;;;;;;;14.30;47.70;;;;;;5033599;28;75492;-68
2021/05/13 07:21:04;;;;;;;;;;;14.30;47.50;;;;;;5034150;28;75859;-66
2021/05/13 07:23:30;;;;;;;;;;;14.40;47.70;;;;;;5033832;28;78221;-66
2021/05/13 07:25:57;;;;;;;;;;;14.40;47.30;;;;;;5033349;28;76546;-67
2021/05/13 07:28:23;;;;;;;;;;;14.50;47.00;;;;;;5052406;28;75929;-66
2021/05/13 07:30:49;;;;;;;;;;;14.60;46.80;;;;;;5052188;28;74643;-68
2021/05/13 07:33:14;;;;;;;;;;;14.60;46.70;;;;;;5034095;28;75351;-68
2021/05/13 07:35:40;;;;;;;;;;;14.70;46.30;;;;;;5033215;28;75517;-65
2021/05/13 07:38:06;;;;;;;;;;;14.80;46.00;;;;;;5032258;28;77501;-67
2021/05/13 07:40:31;;;;;;;;;;;14.80;45.50;;;;;;5052070;28;75301;-66
2021/05/13 07:42:57;;;;;;;;;;;14.90;45.90;;;;;;5052428;28;74534;-66
2021/05/13 07:45:23;;;;;;;;;;;14.90;45.60;;;;;;5033840;28;78004;-67
2021/05/13 07:47:49;;;;;;;;;;;14.90;45.10;;;;;;5051575;28;75535;-67
2021/05/13 07:50:17;;;;;;;;;;;14.90;45.20;;;;;;5051662;28;75507;-66
2021/05/13 07:52:44;;;;;;;;;;;14.90;45.20;;;;;;5032751;28;77234;-66
2021/05/13 07:55:09;;;;;;;;;;;14.90;45.40;;;;;;5033395;28;75852;-67
2021/05/13 07:57:35;;;;;;;;;;;15.00;45.30;;;;;;5032526;28;77345;-66
2021/05/13 08:00:03;;;;;;;;;;;15.20;45.10;;;;;;5033463;28;76036;-66
2021/05/13 08:02:29;;;;;;;;;;;15.30;44.70;;;;;;5033756;28;77224;-66
2021/05/13 08:04:54;;;;;;;;;;;15.50;44.60;;;;;;5036862;28;75902;-66
2021/05/13 08:07:22;;;;;;;;;;;15.70;44.10;;;;;;5036353;28;77241;-67
2021/05/13 08:09:48;;;;;;;;;;;16.00;43.80;;;;;;5035788;28;75534;-66
2021/05/13 08:12:14;;;;;;;;;;;16.30;43.40;;;;;;5044408;28;76426;-67
2021/05/13 08:14:40;;;;;;;;;;;16.40;42.90;;;;;;5037078;28;77295;-66
2021/05/13 08:17:05;;;;;;;;;;;16.60;42.60;;;;;;5055040;28;74849;-67
2021/05/13 08:19:31;;;;;;;;;;;16.60;41.90;;;;;;5055615;28;75461;-67
2021/05/13 08:21:57;;;;;;;;;;;16.80;42.20;;;;;;5037105;28;76414;-65
2021/05/13 08:24:22;;;;;;;;;;;16.90;41.30;;;;;;5036826;28;76085;-68
2021/05/13 08:26:48;;;;;;;;;;;17.00;41.20;;;;;;5055116;28;75676;-66
2021/05/13 08:29:14;;;;;;;;;;;17.00;41.10;;;;;;5055437;28;75129;-67
2021/05/13 08:31:39;;;;;;;;;;;17.00;41.40;;;;;;5036832;28;77314;-67
2021/05/13 08:34:05;;;;;;;;;;;17.00;41.50;;;;;;5036628;28;77227;-67
2021/05/13 08:36:31;;;;;;;;;;;17.00;41.30;;;;;;5036469;28;78148;-68
2021/05/13 08:38:56;;;;;;;;;;;16.90;42.00;;;;;;5055176;28;74989;-66
2021/05/13 08:41:24;;;;;;;;;;;17.00;41.90;;;;;;5036685;28;77190;-68
2021/05/13 08:43:51;;;;;;;;;;;17.10;41.90;;;;;;5036499;28;77196;-68
2021/05/13 08:46:17;;;;;;;;;;;17.20;41.10;;;;;;5035627;28;77500;-69
2021/05/13 08:48:43;;;;;;;;;;;17.10;41.60;;;;;;5054838;28;75144;-68
2021/05/13 08:51:09;;;;;;;;;;;17.20;41.30;;;;;;5054465;28;75177;-68
2021/05/13 08:53:45;;;;;;;;;;;17.20;41.20;;;;;;5055119;28;75264;-67
2021/05/13 08:56:11;;;;;;;;;;;17.10;41.30;;;;;;5035809;28;77866;-65
2021/05/13 08:58:36;;;;;;;;;;;17.00;41.20;;;;;;5035265;28;76302;-66
2021/05/13 09:01:03;;;;;;;;;;;17.00;41.60;;;;;;5036522;28;76725;-67
2021/05/13 09:03:32;;;;;;;;;;;17.00;41.70;;;;;;5054898;28;75233;-67
2021/05/13 09:05:58;;;;;;;;;;;17.10;40.90;;;;;;5035930;28;77694;-67
2021/05/13 09:08:24;;;;;;;;;;;17.10;40.60;;;;;;5035240;28;75263;-67
2021/05/13 09:10:50;;;;;;;;;;;17.10;40.70;;;;;;5036065;28;77970;-66
2021/05/13 09:13:25;;;;;;;;;;;17.10;40.70;;;;;;5034381;28;75276;-67
2021/05/13 09:15:51;;;;;;;;;;;17.20;40.80;;;;;;5033309;28;76545;-69
2021/05/13 09:18:29;;;;;;;;;;;17.20;39.90;;;;;;5035334;28;77486;-67
2021/05/13 09:21:02;;;;;;;;;;;17.30;40.60;;;;;;5054663;28;74467;-67
2021/05/13 09:23:28;;;;;;;;;;;17.40;40.40;;;;;;5054482;28;75337;-67
2021/05/13 09:26:05;;;;;;;;;;;17.50;40.30;;;;;;5053929;28;75011;-67
2021/05/13 09:28:31;;;;;;;;;;;17.50;40.30;;;;;;5053722;28;74636;-68
2021/05/13 09:30:56;;;;;;;;;;;17.60;40.00;;;;;;5035268;28;77200;-67
2021/05/13 09:33:29;;;;;;;;;;;17.70;39.90;;;;;;5054376;28;75182;-68
2021/05/13 09:35:55;;;;;;;;;;;17.80;39.80;;;;;;5035393;28;75648;-69
2021/05/13 09:38:31;;;;;;;;;;;17.80;39.40;;;;;;5035047;28;77957;-69
2021/05/13 09:40:56;;;;;;;;;;;17.90;39.50;;;;;;5035702;28;76455;-69
2021/05/13 09:43:23;;;;;;;;;;;17.90;39.20;;;;;;5054456;28;75206;-70
2021/05/13 09:45:50;;;;;;;;;;;17.90;39.30;;;;;;5035740;28;77591;-69
2021/05/13 09:48:31;;;;;;;;;;;18.00;39.10;;;;;;5034222;28;78976;-69
2021/05/13 09:51:16;;;;;;;;;;;18.00;39.00;;;;;;5052415;28;74756;-71
2021/05/13 09:53:42;;;;;;;;;;;18.20;39.30;;;;;;5051762;28;75632;-70
2021/05/13 09:56:21;;;;;;;;;;;18.40;39.00;;;;;;5053900;28;75320;-67
2021/05/13 09:58:46;;;;;;;;;;;18.50;38.60;;;;;;5034422;28;75967;-66
2021/05/13 10:01:12;;;;;;;;;;;18.70;38.40;;;;;;5035386;28;76675;-67
2021/05/13 10:03:38;;;;;;;;;;;18.70;38.60;;;;;;5054060;28;75066;-67
2021/05/13 10:06:04;;;;;;;;;;;19.00;38.40;;;;;;5033328;28;77480;-67
2021/05/13 10:08:29;;;;;;;;;;;19.30;38.10;;;;;;5041682;28;76029;-67
2021/05/13 10:10:55;;;;;;;;;;;19.40;37.90;;;;;;5053881;28;75135;-68
2021/05/13 10:13:21;;;;;;;;;;;19.40;37.40;;;;;;5034858;28;76269;-66
2021/05/13 10:15:47;;;;;;;;;;;19.50;38.10;;;;;;5053631;28;74860;-67
2021/05/13 10:18:13;;;;;;;;;;;19.70;37.80;;;;;;5034729;28;76030;-67
2021/05/13 10:20:39;;;;;;;;;;;19.90;37.60;;;;;;5034586;28;76361;-67
2021/05/13 10:23:05;;;;;;;;;;;20.20;37.70;;;;;;5034679;28;77834;-67
2021/05/13 10:25:31;;;;;;;;;;;20.60;36.90;;;;;;5052482;27;75221;-67
2021/05/13 10:27:58;;;;;;;;;;;20.80;36.50;;;;;;5034609;28;76746;-66
2021/05/13 10:30:25;;;;;;;;;;;21.10;36.00;;;;;;5035109;28;77084;-66
2021/05/13 10:33:09;;;;;;;;;;;21.60;35.60;;;;;;5034647;28;75765;-67
2021/05/13 10:35:36;;;;;;;;;;;21.80;35.30;;;;;;5034333;28;76667;-67
2021/05/13 10:38:05;;;;;;;;;;;21.60;35.80;;;;;;5034365;28;77106;-67
2021/05/13 10:40:44;;;;;;;;;;;21.70;35.80;;;;;;5034287;28;77185;-68
2021/05/13 10:43:10;;;;;;;;;;;21.70;35.50;;;;;;5034067;28;74735;-68
2021/05/13 10:45:43;;;;;;;;;;;21.80;35.80;;;;;;5034017;28;79149;-67
2021/05/13 10:48:08;;;;;;;;;;;21.80;35.40;;;;;;5034296;28;77565;-69
2021/05/13 10:50:54;;;;;;;;;;;21.70;36.00;;;;;;5034919;28;78071;-68
2021/05/13 10:56:23;;;;;;;;;;;22.30;35.30;;;;;;5049898;28;75343;-69
2021/05/13 10:58:52;;;;;;;;;;;22.90;35.20;;;;;;5052624;28;75752;-69
2021/05/13 11:01:36;;;;;;;;;;;23.30;33.80;;;;;;5053309;28;75311;-70
2021/05/13 11:04:34;;;;;;;;;;;23.40;34.30;;;;;;5053099;28;75254;-69
2021/05/13 11:07:06;;;;;;;;;;;23.60;34.10;;;;;;5030562;27;77053;-69
2021/05/13 11:09:42;;;;;;;;;;;23.00;34.20;;;;;;5012514;28;76404;-70
2021/05/13 11:12:14;;;;;;;;;;;22.40;35.00;;;;;;5008964;28;76216;-70
2021/05/13 11:20:16;;;;;;;;;;;21.40;36.30;;;;;;5031473;28;74643;-68
2021/05/13 11:23:04;;;;;;;;;;;21.20;36.90;;;;;;5031331;28;75780;-68
2021/05/13 11:25:44;;;;;;;;;;;21.20;36.80;;;;;;5011603;28;75429;-67
2021/05/13 11:28:29;;;;;;;;;;;21.10;36.70;;;;;;5013975;28;77407;-68
2021/05/13 11:31:17;;;;;;;;;;;21.00;36.80;;;;;;5014308;28;77756;-67
2021/05/13 11:33:54;;;;;;;;;;;20.90;36.80;;;;;;5004586;28;75487;-68
2021/05/13 11:36:23;;;;;;;;;;;20.70;37.10;;;;;;5032348;28;75596;-68
2021/05/13 11:39:06;;;;;;;;;;;20.60;37.30;;;;;;5032385;28;75514;-68
2021/05/13 11:41:32;;;;;;;;;;;20.70;37.00;;;;;;5033087;28;74516;-68
2021/05/13 11:43:58;;;;;;;;;;;20.70;37.00;;;;;;5032304;28;74589;-67
2021/05/13 11:46:24;;;;;;;;;;;20.60;37.20;;;;;;5032392;28;75674;-67
2021/05/13 11:48:51;;;;;;;;;;;20.70;37.30;;;;;;5031978;28;75948;-67
2021/05/13 11:51:16;;;;;;;;;;;20.60;37.30;;;;;;5014326;28;75657;-67
2021/05/13 11:53:43;;;;;;;;;;;20.40;37.60;;;;;;5014113;28;77248;-68
2021/05/13 11:56:09;;;;;;;;;;;20.40;38.10;;;;;;5013928;28;75933;-68
2021/05/13 11:58:39;;;;;;;;;;;20.40;38.10;;;;;;5013493;28;77368;-69
2021/05/13 12:01:24;;;;;;;;;;;20.50;38.10;;;;;;5013828;28;76632;-68
2021/05/13 12:03:57;;;;;;;;;;;20.90;37.40;;;;;;5014028;28;77632;-69
2021/05/13 12:06:23;;;;;;;;;;;21.20;36.90;;;;;;5013746;28;77595;-69
2021/05/13 12:08:48;;;;;;;;;;;21.40;36.40;;;;;;5044765;28;75025;-68
2021/05/13 12:11:22;;;;;;;;;;;21.40;36.60;;;;;;5050758;28;77169;-69
2021/05/13 12:13:48;;;;;;;;;;;21.40;36.50;;;;;;5033424;28;76326;-69
2021/05/13 12:16:14;;;;;;;;;;;21.20;36.80;;;;;;5032619;28;77549;-69
2021/05/13 12:18:41;;;;;;;;;;;20.90;37.50;;;;;;5033212;28;77998;-69
2021/05/13 12:21:07;;;;;;;;;;;20.70;37.60;;;;;;5031960;28;77624;-70
2021/05/13 12:23:33;;;;;;;;;;;20.60;37.80;;;;;;5032283;28;74626;-68
2021/05/13 12:25:58;;;;;;;;;;;20.70;38.00;;;;;;5052053;28;75168;-69
2021/05/13 12:28:24;;;;;;;;;;;20.70;38.20;;;;;;5033996;28;76656;-69
2021/05/13 12:30:51;;;;;;;;;;;20.50;38.60;;;;;;5049995;28;74537;-69
2021/05/13 12:33:24;;;;;;;;;;;20.40;38.90;;;;;;5029753;28;77350;-69
2021/05/13 12:35:50;;;;;;;;;;;20.40;39.00;;;;;;5050541;28;75710;-69
2021/05/13 12:38:17;;;;;;;;;;;20.40;38.80;;;;;;5060806;27;75094;-70
2021/05/13 12:40:43;;;;;;;;;;;20.30;37.30;;;;;;5056642;27;75073;-70
2021/05/13 12:43:18;;;;;;;;;;;20.20;37.70;;;;;;5051911;28;75028;-68
2021/05/13 12:45:45;;;;;;;;;;;20.20;37.20;;;;;;5033330;28;75532;-69
2021/05/13 12:48:20;;;;;;;;;;;20.40;37.20;;;;;;5033623;28;77079;-69
2021/05/13 12:50:53;;;;;;;;;;;20.50;36.40;;;;;;5037437;28;77145;-69
2021/05/13 12:53:22;;;;;;;;;;;20.50;36.10;;;;;;5055328;28;75552;-69
2021/05/13 12:55:48;;;;;;;;;;;20.60;36.00;;;;;;5055674;28;75695;-69
2021/05/13 12:58:15;;;;;;;;;;;20.70;35.40;;;;;;5036491;28;77953;-67
2021/05/13 13:00:42;;;;;;;;;;;20.70;35.30;;;;;;5053956;28;75132;-68
2021/05/13 13:03:14;;;;;;;;;;;20.80;35.40;;;;;;5055247;28;75328;-69
2021/05/13 13:05:39;;;;;;;;;;;20.90;35.40;;;;;;5036768;28;78261;-70
2021/05/13 13:08:05;;;;;;;;;;;21.30;35.10;;;;;;5042061;28;75480;-69
2021/05/13 13:10:32;;;;;;;;;;;22.90;33.50;;;;;;5016527;28;74627;-69
2021/05/13 13:13:10;;;;;;;;;;;24.60;30.40;;;;;;5035354;28;75286;-68
2021/05/13 13:15:40;;;;;;;;;;;24.60;30.30;;;;;;5027171;28;75380;-69
2021/05/13 13:18:07;;;;;;;;;;;24.00;31.40;;;;;;5015357;28;76578;-69
2021/05/13 13:20:33;;;;;;;;;;;25.00;30.50;;;;;;5034690;28;75249;-69
2021/05/13 13:23:19;;;;;;;;;;;25.00;31.10;;;;;;5015941;28;77804;-69
2021/05/13 13:25:45;;;;;;;;;;;24.70;31.10;;;;;;5009558;28;78013;-69
2021/05/13 13:28:11;;;;;;;;;;;24.20;31.10;;;;;;5034595;28;75076;-70
2021/05/13 13:30:37;;;;;;;;;;;23.40;32.00;;;;;;5016594;28;75349;-69
2021/05/13 13:33:16;;;;;;;;;;;22.90;33.10;;;;;;5034780;28;74508;-69
2021/05/13 13:35:43;;;;;;;;;;;23.30;33.30;;;;;;5010323;28;77626;-74
2021/05/13 13:38:10;;;;;;;;;;;27.20;29.70;;;;;;5016026;28;77760;-69
2021/05/13 13:40:37;;;;;;;;;;;29.00;25.90;;;;;;5034737;28;75272;-70
2021/05/13 13:43:03;;;;;;;;;;;28.50;26.00;;;;;;5014558;28;75847;-70
2021/05/13 13:45:29;;;;;;;;;;;27.60;27.70;;;;;;5014561;28;76557;-70
2021/05/13 13:47:56;;;;;;;;;;;27.30;27.40;;;;;;5034431;28;75216;-70
2021/05/13 13:50:22;;;;;;;;;;;26.70;28.20;;;;;;5015870;28;75416;-70
2021/05/13 13:52:47;;;;;;;;;;;30.00;26.40;;;;;;5016464;28;77037;-70
2021/05/13 13:55:13;;;;;;;;;;;33.40;22.10;;;;;;5015856;28;76809;-72
2021/05/13 13:57:39;;;;;;;;;;;33.90;21.80;;;;;;5016087;28;74434;-69
2021/05/13 14:00:05;;;;;;;;;;;32.00;23.40;;;;;;5015653;28;76318;-70
2021/05/13 14:02:31;;;;;;;;;;;31.00;24.70;;;;;;5015812;28;76280;-70
2021/05/13 14:04:57;;;;;;;;;;;29.20;26.20;;;;;;5034371;28;75710;-69
2021/05/13 14:07:22;;;;;;;;;;;28.90;26.80;;;;;;5021812;28;76802;-69
2021/05/13 14:09:48;;;;;;;;;;;31.50;24.80;;;;;;5054599;28;75232;-70
2021/05/13 14:12:13;;;;;;;;;;;34.30;22.20;;;;;;5035853;28;76310;-71
2021/05/13 14:14:39;;;;;;;;;;;34.30;22.60;;;;;;5053692;28;75764;-72
2021/05/13 14:17:05;;;;;;;;;;;32.40;23.90;;;;;;5053962;28;75264;-71
2021/05/13 14:19:30;;;;;;;;;;;30.50;25.60;;;;;;5035788;28;76037;-73
2021/05/13 14:21:57;;;;;;;;;;;29.00;27.30;;;;;;5054741;28;75562;-71
2021/05/13 14:24:23;;;;;;;;;;;27.90;28.90;;;;;;5054236;28;74536;-71
2021/05/13 14:26:48;;;;;;;;;;;27.50;29.50;;;;;;5035768;28;76407;-69
2021/05/13 14:29:14;;;;;;;;;;;27.10;30.20;;;;;;5054332;28;74374;-70
2021/05/13 14:31:40;;;;;;;;;;;27.70;30.00;;;;;;5035794;28;77283;-71
2021/05/13 14:34:05;;;;;;;;;;;27.90;29.50;;;;;;5053594;28;75767;-71
2021/05/13 14:36:31;;;;;;;;;;;27.90;29.60;;;;;;5035578;28;75666;-70